Time;durP1;ratioP1;P1;durP2;ratioP2;P2;SDS_P1;SDS_P2;PMS_P1;PMS_P2;Temp;Humidity;BMP_temperature;BMP_pressure;BME280_temperature;BME280_humidity;BME280_pressure;Samples;Min_cycle;Max_cycle;Signal;HPM_P1;HPM_P2
2022/10/20 00:00:05;;;;;;;23.88;16.35;;;;;;;7.62;100.00;101639.63;5032787;28;20029;-60
2022/10/20 00:02:30;;;;;;;23.85;15.88;;;;;;;7.64;100.00;101631.09;5050611;28;20029;-61
2022/10/20 00:04:55;;;;;;;24.85;17.17;;;;;;;7.65;100.00;101633.56;5032124;28;20101;-62
2022/10/20 00:07:21;;;;;;;24.52;16.15;;;;;;;7.65;100.00;101630.00;5050736;28;20496;-62
2022/10/20 00:09:47;;;;;;;24.27;16.58;;;;;;;7.66;100.00;101631.66;5051587;28;20105;-62
2022/10/20 00:12:12;;;;;;;25.13;16.25;;;;;;;7.66;100.00;101617.88;5035989;28;20155;-61
2022/10/20 00:14:37;;;;;;;24.10;16.73;;;;;;;7.66;100.00;101615.13;5054638;28;20033;-61
2022/10/20 00:17:04;;;;;;;24.23;16.67;;;;;;;7.64;100.00;101611.81;5054751;28;20029;-61
2022/10/20 00:19:29;;;;;;;23.33;17.30;;;;;;;7.65;100.00;101599.69;5055199;28;20037;-61
2022/10/20 00:21:55;;;;;;;23.95;16.15;;;;;;;7.62;100.00;101597.47;5054463;28;20136;-61
2022/10/20 00:24:20;;;;;;;26.27;17.60;;;;;;;7.61;100.00;101596.66;5054882;28;20342;-60
2022/10/20 00:26:46;;;;;;;26.73;17.55;;;;;;;7.60;100.00;101596.94;5054811;28;20028;-62
2022/10/20 00:29:12;;;;;;;25.70;17.38;;;;;;;7.59;100.00;101587.00;5054279;28;20132;-61
2022/10/20 00:31:37;;;;;;;24.80;16.75;;;;;;;7.57;100.00;101598.28;5054238;28;20044;-61
2022/10/20 00:34:02;;;;;;;25.25;17.02;;;;;;;7.59;100.00;101595.28;5054446;28;20495;-62
2022/10/20 00:36:28;;;;;;;24.33;17.02;;;;;;;7.57;100.00;101589.19;5054257;28;20037;-61
2022/10/20 00:39:00;;;;;;;27.70;17.33;;;;;;;7.55;100.00;101597.75;5053795;28;20032;-61
2022/10/20 00:41:27;;;;;;;24.63;16.63;;;;;;;7.56;100.00;101596.63;5054101;28;20115;-60
2022/10/20 00:44:01;;;;;;;24.58;17.83;;;;;;;7.53;100.00;101588.91;5052308;28;20021;-61
2022/10/20 00:46:37;;;;;;;24.67;17.48;;;;;;;7.47;100.00;101577.03;5036654;28;20033;-62
2022/10/20 00:49:11;;;;;;;25.60;16.88;;;;;;;7.48;100.00;101570.44;5054621;28;20040;-61
2022/10/20 00:51:37;;;;;;;24.05;16.55;;;;;;;7.52;100.00;101564.38;5054510;28;20021;-62
2022/10/20 00:54:17;;;;;;;24.92;17.23;;;;;;;7.53;100.00;101569.63;5054475;28;20594;-61
2022/10/20 00:56:46;;;;;;;27.00;17.30;;;;;;;7.49;100.00;101563.84;5054530;28;20139;-61
2022/10/20 00:59:15;;;;;;;24.98;17.88;;;;;;;7.43;100.00;101553.06;5054613;28;20078;-61
2022/10/20 01:01:42;;;;;;;25.50;17.08;;;;;;;7.45;100.00;101557.19;5054045;28;20044;-62
2022/10/20 01:04:07;;;;;;;25.17;16.98;;;;;;;7.47;100.00;101551.41;5053971;28;20090;-61
2022/10/20 01:06:33;;;;;;;24.50;17.23;;;;;;;7.46;100.00;101561.63;5053729;28;20021;-61
2022/10/20 01:08:59;;;;;;;24.90;17.45;;;;;;;7.43;100.00;101559.38;5053175;28;20167;-61
2022/10/20 01:11:39;;;;;;;24.83;17.92;;;;;;;7.43;100.00;101553.88;5054233;28;20049;-61
2022/10/20 01:14:34;;;;;;;25.08;16.92;;;;;;;7.44;100.00;101538.19;5054256;28;20029;-62
2022/10/20 01:17:22;;;;;;;26.27;17.45;;;;;;;7.44;100.00;101540.97;5054487;28;20044;-61
2022/10/20 01:19:57;;;;;;;26.17;17.95;;;;;;;7.41;100.00;101536.81;5054373;28;20140;-60
2022/10/20 01:23:01;;;;;;;27.05;17.42;;;;;;;7.41;100.00;101538.72;5035767;28;20028;-60
2022/10/20 01:25:44;;;;;;;25.73;17.87;;;;;;;7.43;100.00;101544.81;4953773;29;20163;-60
2022/10/20 01:28:19;;;;;;;24.42;17.77;;;;;;;7.36;100.00;101534.03;5045677;28;20343;-61
2022/10/20 01:30:50;;;;;;;25.63;18.10;;;;;;;7.34;100.00;101511.44;5053998;28;20021;-61
2022/10/20 01:33:27;;;;;;;27.27;18.20;;;;;;;7.36;100.00;101517.50;5053817;28;20029;-60
2022/10/20 01:36:03;;;;;;;28.60;18.23;;;;;;;7.34;100.00;101497.69;5053929;28;20021;-61
2022/10/20 01:38:49;;;;;;;25.90;18.20;;;;;;;7.30;100.00;101491.88;5053955;28;20025;-61
2022/10/20 01:41:24;;;;;;;25.02;17.90;;;;;;;7.21;100.00;101476.97;5053940;28;20029;-60
2022/10/20 01:43:51;;;;;;;25.70;18.15;;;;;;;7.26;100.00;101481.69;5054010;28;20067;-60
2022/10/20 01:46:20;;;;;;;27.88;18.85;;;;;;;7.26;100.00;101490.78;5053691;28;20070;-60
2022/10/20 01:48:46;;;;;;;25.38;17.88;;;;;;;7.27;100.00;101481.44;5053468;28;20079;-60
2022/10/20 01:51:12;;;;;;;24.63;17.27;;;;;;;7.27;100.00;101477.84;5053540;28;20059;-61
2022/10/20 01:53:37;;;;;;;27.52;19.08;;;;;;;7.25;100.00;101472.59;5053504;28;20056;-60
2022/10/20 01:56:04;;;;;;;26.17;18.55;;;;;;;7.24;100.00;101462.69;5053621;28;20028;-60
2022/10/20 01:58:48;;;;;;;26.27;18.48;;;;;;;7.23;100.00;101460.19;5053557;28;20025;-60
2022/10/20 02:01:36;;;;;;;28.02;18.17;;;;;;;7.23;100.00;101469.28;5053427;28;20036;-61
2022/10/20 02:04:04;;;;;;;28.85;19.00;;;;;;;7.23;100.00;101480.28;5053540;28;20032;-61
2022/10/20 02:06:53;;;;;;;26.95;18.58;;;;;;;7.25;100.00;101488.28;5053320;28;20025;-62
2022/10/20 02:09:33;;;;;;;28.23;19.50;;;;;;;7.24;100.00;101492.13;5053004;28;20033;-61
2022/10/20 02:12:09;;;;;;;26.35;18.33;;;;;;;7.17;100.00;101471.19;5053052;28;20045;-62
2022/10/20 02:14:36;;;;;;;31.45;19.15;;;;;;;7.22;100.00;101472.31;5053154;28;20036;-61
2022/10/20 02:17:06;;;;;;;27.48;18.40;;;;;;;7.09;100.00;101455.19;5052944;28;20033;-61
2022/10/20 02:19:37;;;;;;;27.70;19.48;;;;;;;7.18;100.00;101456.34;5052603;28;20033;-61
2022/10/20 02:22:03;;;;;;;27.02;18.42;;;;;;;7.20;100.00;101460.75;5052583;28;20021;-61
2022/10/20 02:24:34;;;;;;;27.45;18.70;;;;;;;7.19;100.00;101459.91;5052572;28;20068;-62
2022/10/20 02:27:04;;;;;;;27.55;18.40;;;;;;;7.19;100.00;101473.66;5052571;28;20029;-61
2022/10/20 02:29:45;;;;;;;28.70;19.58;;;;;;;7.16;100.00;101458.53;5052387;28;20091;-62
2022/10/20 02:32:12;;;;;;;26.48;18.35;;;;;;;7.18;100.00;101452.75;5051433;28;20025;-61
2022/10/20 02:34:37;;;;;;;28.13;18.88;;;;;;;7.17;100.00;101451.09;5052154;28;20017;-61
2022/10/20 02:37:02;;;;;;;28.45;19.45;;;;;;;7.16;100.00;101450.25;5052143;28;20383;-62
2022/10/20 02:39:28;;;;;;;28.90;18.77;;;;;;;7.16;100.00;101444.75;5052429;28;20124;-61
2022/10/20 02:41:53;;;;;;;27.92;19.08;;;;;;;7.16;100.00;101438.44;5052042;28;20056;-61
2022/10/20 02:44:19;;;;;;;27.30;18.92;;;;;;;7.16;100.00;101444.75;5052320;28;20391;-62
2022/10/20 02:46:44;;;;;;;28.08;19.08;;;;;;;7.17;100.00;101437.34;5052398;28;20037;-62
2022/10/20 02:49:10;;;;;;;28.67;20.02;;;;;;;7.19;100.00;101424.13;5052061;28;20480;-61
2022/10/20 02:51:35;;;;;;;28.40;19.17;;;;;;;7.19;100.00;101415.88;5052027;28;20419;-60
2022/10/20 02:54:00;;;;;;;27.95;19.77;;;;;;;7.21;100.00;101399.94;5052309;28;20053;-60
2022/10/20 02:56:25;;;;;;;31.00;20.02;;;;;;;7.19;100.00;101399.34;5051885;28;20052;-60
2022/10/20 02:58:51;;;;;;;28.52;20.73;;;;;;;7.18;100.00;101395.78;5052148;28;20365;-61
2022/10/20 03:01:16;;;;;;;29.55;19.58;;;;;;;7.17;100.00;101385.88;5051740;28;20024;-61
2022/10/20 03:03:41;;;;;;;27.92;19.40;;;;;;;7.18;100.00;101389.44;5051832;28;20171;-59
2022/10/20 03:06:09;;;;;;;29.15;20.23;;;;;;;7.10;100.00;101365.22;5047320;28;20034;-61
2022/10/20 03:08:34;;;;;;;29.00;20.15;;;;;;;7.14;100.00;101352.56;5040825;28;20095;-62
2022/10/20 03:11:00;;;;;;;28.98;21.20;;;;;;;7.16;100.00;101361.41;5045443;28;20128;-62
2022/10/20 03:13:25;;;;;;;30.77;20.85;;;;;;;7.18;100.00;101365.53;5032630;28;20468;-62
2022/10/20 03:15:50;;;;;;;29.67;20.20;;;;;;;7.20;100.00;101365.25;5043815;28;20052;-63
2022/10/20 03:18:16;;;;;;;30.23;21.17;;;;;;;7.22;100.00;101354.00;5052227;28;20417;-61
2022/10/20 03:20:42;;;;;;;29.80;20.95;;;;;;;7.21;100.00;101353.16;5051705;28;20115;-60
2022/10/20 03:23:08;;;;;;;30.65;20.60;;;;;;;7.25;100.00;101364.44;5050262;28;20412;-63
2022/10/20 03:25:33;;;;;;;31.40;20.90;;;;;;;7.26;100.00;101346.81;5031894;28;20570;-61
2022/10/20 03:27:58;;;;;;;30.63;20.92;;;;;;;7.27;100.00;101335.56;5031935;28;20033;-61
2022/10/20 03:30:24;;;;;;;29.33;20.60;;;;;;;7.29;100.00;101333.34;5031964;28;20033;-60
2022/10/20 03:32:49;;;;;;;31.42;21.85;;;;;;;7.30;100.00;101328.69;5031708;28;20036;-62
2022/10/20 03:35:14;;;;;;;30.02;21.77;;;;;;;7.31;100.00;101339.41;5031707;28;20034;-61
2022/10/20 03:37:40;;;;;;;32.92;21.58;;;;;;;7.31;100.00;101328.41;5031388;28;20097;-62
2022/10/20 03:40:06;;;;;;;31.70;20.60;;;;;;;7.36;100.00;101329.53;5032371;28;20032;-62
2022/10/20 03:42:31;;;;;;;30.00;20.88;;;;;;;7.35;100.00;101306.66;5033379;28;20048;-61
2022/10/20 03:44:56;;;;;;;29.42;21.58;;;;;;;7.37;100.00;101312.72;5051332;28;20102;-62
2022/10/20 03:47:22;;;;;;;30.55;21.45;;;;;;;7.39;100.00;101312.44;5051562;28;20029;-62
2022/10/20 03:49:47;;;;;;;30.00;21.75;;;;;;;7.42;100.00;101309.97;5051465;28;20021;-62
2022/10/20 03:52:12;;;;;;;29.70;21.05;;;;;;;7.43;100.00;101317.13;5051198;28;20067;-62
2022/10/20 03:54:39;;;;;;;29.30;21.17;;;;;;;7.45;100.00;101320.44;5051542;28;20029;-62
2022/10/20 03:57:04;;;;;;;31.15;22.20;;;;;;;7.49;100.00;101310.56;5051500;28;20040;-61
2022/10/20 03:59:30;;;;;;;31.73;21.98;;;;;;;7.50;100.00;101303.09;5051429;28;20039;-62
2022/10/20 04:01:55;;;;;;;31.13;21.38;;;;;;;7.53;100.00;101301.72;5051342;28;20400;-62
2022/10/20 04:04:20;;;;;;;31.25;21.48;;;;;;;7.55;100.00;101300.38;5051057;28;20025;-61
2022/10/20 04:06:46;;;;;;;30.88;20.92;;;;;;;7.58;100.00;101305.31;5051115;28;20029;-62
2022/10/20 04:09:11;;;;;;;31.88;22.35;;;;;;;7.59;100.00;101295.94;5051238;28;20071;-62
2022/10/20 04:11:36;;;;;;;31.35;21.75;;;;;;;7.61;100.00;101298.41;5050923;28;20098;-61
2022/10/20 04:14:02;;;;;;;33.90;21.48;;;;;;;7.63;100.00;101299.81;5051157;28;20029;-62
2022/10/20 04:16:27;;;;;;;31.95;22.00;;;;;;;7.66;100.00;101306.69;5032132;28;20057;-62
2022/10/20 04:18:53;;;;;;;32.78;22.83;;;;;;;7.66;100.00;101292.94;5031269;28;20029;-62
2022/10/20 04:21:18;;;;;;;30.42;21.27;;;;;;;7.70;100.00;101298.72;5031626;28;20044;-62
2022/10/20 04:23:44;;;;;;;31.00;21.75;;;;;;;7.70;100.00;101291.25;5031239;28;20026;-62
2022/10/20 04:26:11;;;;;;;33.00;21.75;;;;;;;7.72;100.00;101288.25;5031322;28;20025;-62
2022/10/20 04:28:36;;;;;;;30.00;21.35;;;;;;;7.73;100.00;101284.41;5031516;28;20357;-62
2022/10/20 04:31:02;;;;;;;32.53;22.42;;;;;;;7.74;100.00;101272.28;5031591;28;20025;-61
2022/10/20 04:33:28;;;;;;;31.10;22.67;;;;;;;7.63;100.00;101242.00;5031521;28;20044;-63
2022/10/20 04:36:04;;;;;;;33.17;22.13;;;;;;;7.76;100.00;101253.53;5031503;28;20143;-63
2022/10/20 04:38:30;;;;;;;31.30;21.88;;;;;;;7.77;100.00;101244.16;5031411;28;20033;-63
2022/10/20 04:40:58;;;;;;;31.85;21.45;;;;;;;7.72;100.00;101241.44;5031288;28;20049;-61
2022/10/20 04:43:23;;;;;;;29.60;21.58;;;;;;;7.79;100.00;101261.25;5042703;28;20025;-62
2022/10/20 04:45:49;;;;;;;29.73;20.42;;;;;;;7.81;100.00;101256.28;5050470;28;20364;-61
2022/10/20 04:48:15;;;;;;;30.88;21.52;;;;;;;7.81;100.00;101246.09;5051047;28;20091;-62
2022/10/20 04:50:40;;;;;;;32.83;22.23;;;;;;;7.83;100.00;101240.31;5051290;28;20429;-62
2022/10/20 04:53:06;;;;;;;29.65;21.90;;;;;;;7.85;100.00;101237.28;5051398;28;20060;-63
2022/10/20 04:55:32;;;;;;;31.35;22.00;;;;;;;7.85;100.00;101251.84;5051658;28;20432;-63
2022/10/20 04:57:57;;;;;;;31.70;22.02;;;;;;;7.88;100.00;101239.47;5054994;28;20024;-62
2022/10/20 05:00:22;;;;;;;32.38;22.13;;;;;;;7.89;100.00;101228.19;5055009;28;20464;-61
2022/10/20 05:02:47;;;;;;;32.92;22.48;;;;;;;7.87;100.00;101213.84;5054607;28;20112;-61
2022/10/20 05:05:13;;;;;;;34.08;22.83;;;;;;;7.89;100.00;101210.81;5055050;28;20071;-60
2022/10/20 05:07:38;;;;;;;32.08;22.83;;;;;;;7.89;100.00;101221.81;5054878;28;20025;-61
2022/10/20 05:10:04;;;;;;;30.55;21.98;;;;;;;7.90;100.00;101213.31;5053972;28;20045;-59
2022/10/20 05:12:29;;;;;;;32.90;22.23;;;;;;;7.90;100.00;101205.03;5033290;28;20017;-61
2022/10/20 05:14:55;;;;;;;31.30;22.23;;;;;;;7.91;100.00;101198.44;5054910;28;20368;-61
2022/10/20 05:17:20;;;;;;;33.63;21.65;;;;;;;7.93;100.00;101203.66;5054746;28;20029;-62
2022/10/20 05:19:45;;;;;;;32.25;22.92;;;;;;;7.93;100.00;101198.97;5054498;28;20479;-61
2022/10/20 05:22:10;;;;;;;31.20;22.85;;;;;;;7.94;100.00;101203.34;5054169;28;20052;-60
2022/10/20 05:24:36;;;;;;;31.85;22.15;;;;;;;7.96;100.00;101222.38;5054134;28;20112;-61
2022/10/20 05:27:01;;;;;;;33.45;21.83;;;;;;;7.95;100.00;101226.25;5054252;28;20033;-59
2022/10/20 05:29:26;;;;;;;33.17;22.55;;;;;;;7.95;100.00;101220.72;5054299;28;20122;-61
2022/10/20 05:31:52;;;;;;;32.72;23.65;;;;;;;7.96;100.00;101200.34;5054100;28;20131;-60
2022/10/20 05:34:17;;;;;;;34.03;23.70;;;;;;;7.97;100.00;101183.53;5053737;28;20162;-61
2022/10/20 05:36:42;;;;;;;31.02;22.77;;;;;;;7.98;100.00;101170.59;5054215;28;20052;-62
2022/10/20 05:39:09;;;;;;;33.17;23.10;;;;;;;7.99;100.00;101174.16;5054303;28;20029;-63
2022/10/20 05:41:35;;;;;;;32.58;22.38;;;;;;;8.02;100.00;101212.19;5054131;28;20433;-60
2022/10/20 05:44:03;;;;;;;32.67;22.33;;;;;;;8.04;100.00;101235.59;5053742;28;20044;-62
2022/10/20 05:46:32;;;;;;;34.15;23.02;;;;;;;7.97;100.00;101202.00;5053629;28;20369;-60
2022/10/20 05:49:00;;;;;;;33.05;23.67;;;;;;;8.03;100.00;101203.63;5047199;28;20411;-62
2022/10/20 05:51:29;;;;;;;32.30;22.55;;;;;;;8.04;100.00;101212.69;5045400;28;20029;-62
2022/10/20 05:53:56;;;;;;;34.35;22.73;;;;;;;8.08;100.00;101216.56;5044862;28;20030;-63
2022/10/20 05:56:23;;;;;;;33.10;22.73;;;;;;;8.13;100.00;101191.72;5044741;28;20135;-64
2022/10/20 05:58:49;;;;;;;32.13;22.58;;;;;;;8.19;100.00;101198.03;5044075;28;20024;-65
2022/10/20 06:01:18;;;;;;;34.30;23.83;;;;;;;8.24;100.00;101192.53;5046682;28;20025;-63
2022/10/20 06:03:48;;;;;;;33.97;23.05;;;;;;;8.32;100.00;101200.22;5044556;28;20032;-62
2022/10/20 06:06:13;;;;;;;33.58;23.77;;;;;;;8.37;100.00;101205.69;5043041;28;20025;-61
2022/10/20 06:08:39;;;;;;;33.40;23.05;;;;;;;8.39;100.00;101199.91;5039986;28;20156;-60
2022/10/20 06:11:07;;;;;;;33.17;22.70;;;;;;;8.36;100.00;101193.00;5047468;28;20045;-60
2022/10/20 06:13:33;;;;;;;35.55;23.58;;;;;;;8.49;100.00;101213.69;5053425;28;20039;-62
2022/10/20 06:16:09;;;;;;;33.65;23.85;;;;;;;8.51;100.00;101216.97;5035429;28;20534;-62
2022/10/20 06:18:37;;;;;;;31.42;22.80;;;;;;;8.57;100.00;101207.56;5053189;28;20095;-62
2022/10/20 06:21:25;;;;;;;31.95;22.50;;;;;;;8.63;100.00;101202.00;5052792;28;20028;-60
2022/10/20 06:23:50;;;;;;;31.85;22.20;;;;;;;8.66;100.00;101193.19;5052930;28;20043;-58
2022/10/20 06:26:19;;;;;;;32.30;22.52;;;;;;;8.74;100.00;101189.81;5053182;28;20043;-62
2022/10/20 06:28:48;;;;;;;32.65;22.08;;;;;;;8.76;100.00;101182.09;5052224;28;20033;-56
2022/10/20 06:31:19;;;;;;;31.95;22.67;;;;;;;8.83;100.00;101190.88;5051675;28;20061;-60
2022/10/20 06:33:45;;;;;;;29.23;21.73;;;;;;;8.86;100.00;101194.97;5052384;28;20449;-62
2022/10/20 06:36:11;;;;;;;30.80;22.52;;;;;;;8.88;100.00;101199.09;5052230;28;20109;-61
2022/10/20 06:38:37;;;;;;;32.70;23.58;;;;;;;8.89;100.00;101208.22;5052028;28;20075;-60
2022/10/20 06:41:08;;;;;;;30.98;22.50;;;;;;;8.93;100.00;101214.78;5037287;28;20092;-61
2022/10/20 06:43:34;;;;;;;29.83;21.45;;;;;;;8.94;100.00;101188.03;5031087;28;20033;-60
2022/10/20 06:46:03;;;;;;;31.63;21.77;;;;;;;8.95;100.00;101184.19;5030518;28;20039;-60
2022/10/20 06:48:28;;;;;;;30.73;22.30;;;;;;;9.03;100.00;101195.41;5030853;28;20029;-59
2022/10/20 06:51:03;;;;;;;30.45;21.60;;;;;;;9.08;100.00;101180.75;5030710;28;20041;-60
2022/10/20 06:53:29;;;;;;;31.00;21.77;;;;;;;9.13;100.00;101180.72;5033561;28;20037;-61
2022/10/20 06:55:58;;;;;;;30.45;21.77;;;;;;;9.16;100.00;101171.03;5041251;28;20025;-62
2022/10/20 06:58:24;;;;;;;31.63;21.40;;;;;;;9.21;100.00;101185.63;5030476;28;20104;-62
2022/10/20 07:00:58;;;;;;;29.48;21.33;;;;;;;9.25;100.00;101183.09;5029682;28;20044;-62
2022/10/20 07:03:24;;;;;;;29.42;21.35;;;;;;;9.28;100.00;101179.78;5033678;28;20037;-61
2022/10/20 07:05:49;;;;;;;31.50;21.08;;;;;;;9.31;100.00;101170.91;5049765;28;20056;-62
2022/10/20 07:08:15;;;;;;;31.13;22.23;;;;;;;9.36;100.00;101175.56;5048300;28;20495;-61
2022/10/20 07:10:40;;;;;;;30.40;21.30;;;;;;;9.41;100.00;101172.75;5049478;28;20041;-61
2022/10/20 07:13:05;;;;;;;29.08;20.00;;;;;;;9.44;100.00;101174.94;5049744;28;20122;-61
2022/10/20 07:15:30;;;;;;;27.92;20.45;;;;;;;9.50;100.00;101159.97;5049880;28;20024;-59
2022/10/20 07:17:56;;;;;;;28.33;20.27;;;;;;;9.57;100.00;101164.31;5049686;28;20078;-60
2022/10/20 07:20:21;;;;;;;28.45;20.90;;;;;;;9.60;100.00;101166.50;5049371;28;20044;-61
2022/10/20 07:22:46;;;;;;;30.30;21.20;;;;;;;9.62;100.00;101167.03;5049435;28;20194;-62
2022/10/20 07:25:12;;;;;;;30.90;20.85;;;;;;;9.64;100.00;101168.38;5049590;28;20021;-61
2022/10/20 07:27:37;;;;;;;28.92;20.75;;;;;;;9.69;100.00;101175.81;5049824;28;20124;-61
2022/10/20 07:30:03;;;;;;;30.13;20.58;;;;;;;9.73;100.00;101176.03;5049799;28;20090;-62
2022/10/20 07:32:29;;;;;;;28.75;19.77;;;;;;;9.76;100.00;101176.28;5048990;28;20467;-62
2022/10/20 07:34:55;;;;;;;28.58;19.77;;;;;;;9.80;100.00;101185.63;5050364;28;20312;-61
2022/10/20 07:37:20;;;;;;;28.00;19.85;;;;;;;9.84;100.00;101185.88;5048646;28;20048;-61
2022/10/20 07:39:45;;;;;;;28.33;20.20;;;;;;;9.88;100.00;101181.38;5049590;28;20434;-61
2022/10/20 07:42:11;;;;;;;30.73;20.67;;;;;;;9.93;100.00;101183.28;5049904;28;20032;-60
2022/10/20 07:44:36;;;;;;;29.88;19.75;;;;;;;9.98;100.00;101177.69;5048684;28;20037;-60
2022/10/20 07:47:01;;;;;;;28.48;20.10;;;;;;;10.05;100.00;101192.00;5050105;28;20536;-61
2022/10/20 07:49:27;;;;;;;28.88;18.98;;;;;;;10.11;100.00;101187.22;5050484;28;20029;-61
2022/10/20 07:51:52;;;;;;;28.42;19.42;;;;;;;10.16;100.00;101178.84;5050612;28;20518;-61
2022/10/20 07:54:17;;;;;;;29.35;20.13;;;;;;;10.21;100.00;101186.25;5050207;28;20032;-61
2022/10/20 07:56:43;;;;;;;29.30;20.70;;;;;;;10.28;100.00;101181.22;5050248;28;20025;-61
2022/10/20 07:59:10;;;;;;;29.92;20.52;;;;;;;10.35;100.00;101175.31;5050093;28;20058;-61
2022/10/20 08:01:35;;;;;;;28.23;20.17;;;;;;;10.41;100.00;101174.97;5048571;28;20037;-61
2022/10/20 08:04:01;;;;;;;28.50;19.23;;;;;;;10.46;100.00;101174.09;5049778;28;20039;-61
2022/10/20 08:06:26;;;;;;;27.60;18.98;;;;;;;10.51;100.00;101181.50;5050194;28;20041;-62
2022/10/20 08:08:52;;;;;;;30.52;20.38;;;;;;;10.54;100.00;101180.91;5049574;28;20037;-62
2022/10/20 08:11:18;;;;;;;28.48;19.70;;;;;;;10.59;100.00;101178.06;5048901;28;20052;-62
2022/10/20 08:13:43;;;;;;;28.35;19.13;;;;;;;10.65;100.00;101176.03;5048894;28;20182;-61
2022/10/20 08:16:11;;;;;;;26.90;20.10;;;;;;;10.69;100.00;101169.63;5049270;28;20029;-61
2022/10/20 08:18:36;;;;;;;29.48;20.20;;;;;;;10.76;100.00;101163.72;5049991;28;20136;-61
2022/10/20 08:21:10;;;;;;;28.17;19.48;;;;;;;10.80;100.00;101164.78;5049937;28;20427;-60
2022/10/20 08:23:40;;;;;;;29.25;19.75;;;;;;;10.85;100.00;101166.63;5049767;28;20083;-60
2022/10/20 08:26:06;;;;;;;27.30;19.40;;;;;;;10.90;100.00;101175.69;5050065;28;20113;-61
2022/10/20 08:28:31;;;;;;;27.13;19.90;;;;;;;10.96;100.00;101168.09;5049995;28;20098;-60
2022/10/20 08:30:57;;;;;;;30.67;21.45;;;;;;;11.00;100.00;101166.38;5051256;28;20436;-61
2022/10/20 08:33:22;;;;;;;31.30;20.27;;;;;;;11.07;100.00;101169.59;5051722;28;20048;-61
2022/10/20 08:35:47;;;;;;;30.83;20.02;;;;;;;11.14;100.00;101155.38;5052707;28;20021;-61
2022/10/20 08:38:12;;;;;;;28.13;20.02;;;;;;;11.21;100.00;101157.75;5052903;28;20037;-61
2022/10/20 08:40:40;;;;;;;28.63;20.38;;;;;;;11.15;100.00;101128.50;5052984;28;20032;-61
2022/10/20 08:43:10;;;;;;;27.02;18.95;;;;;;;11.34;100.00;101165.25;5052559;28;20029;-61
2022/10/20 08:45:35;;;;;;;26.80;18.52;;;;;;;11.42;100.00;101149.09;5050775;28;20066;-61
2022/10/20 08:48:01;;;;;;;27.75;19.88;;;;;;;11.49;100.00;101153.09;5052663;28;20163;-61
2022/10/20 08:50:27;;;;;;;25.27;18.75;;;;;;;11.55;100.00;101159.38;5052572;28;20025;-60
2022/10/20 08:52:56;;;;;;;25.98;18.42;;;;;;;11.64;100.00;101159.50;5052536;28;20519;-61
2022/10/20 08:55:30;;;;;;;29.27;20.05;;;;;;;11.67;100.00;101142.22;5052573;28;20040;-60
2022/10/20 08:58:00;;;;;;;28.02;20.75;;;;;;;11.78;100.00;101153.97;5052304;28;20143;-60
2022/10/20 09:00:25;;;;;;;26.95;18.77;;;;;;;11.88;100.00;101147.38;5052204;28;20028;-61
2022/10/20 09:02:51;;;;;;;29.85;19.70;;;;;;;12.00;100.00;101142.19;5052260;28;20039;-61
2022/10/20 09:05:22;;;;;;;28.08;18.42;;;;;;;12.10;100.00;101136.44;5051052;28;20418;-61
2022/10/20 09:07:48;;;;;;;29.42;18.63;;;;;;;12.26;100.00;101139.72;5052149;28;20025;-60
2022/10/20 09:10:26;;;;;;;29.27;19.08;;;;;;;12.46;100.00;101140.41;5052158;28;20365;-60
2022/10/20 09:12:51;;;;;;;27.95;18.85;;;;;;;12.54;100.00;101141.59;5052192;28;20052;-61
2022/10/20 09:15:19;;;;;;;27.90;19.30;;;;;;;12.57;100.00;101122.34;5045849;28;20029;-61
2022/10/20 09:18:08;;;;;;;26.75;18.23;;;;;;;12.73;100.00;101122.81;5052643;28;20107;-59
2022/10/20 09:20:43;;;;;;;28.33;19.38;;;;;;;12.83;100.00;101124.56;5051322;28;20037;-60
2022/10/20 09:23:15;;;;;;;25.95;17.92;;;;;;;12.88;100.00;101124.41;5052445;28;20029;-60
2022/10/20 09:25:42;;;;;;;26.67;18.58;;;;;;;12.89;100.00;101126.06;5051714;28;20445;-60
2022/10/20 09:28:19;;;;;;;26.73;17.80;;;;;;;12.94;100.00;101122.34;5051916;28;20163;-61
2022/10/20 09:30:44;;;;;;;27.58;18.00;;;;;;;12.95;100.00;101115.66;5051891;28;20360;-61
2022/10/20 09:33:30;;;;;;;28.60;17.45;;;;;;;12.94;100.00;101122.34;5051200;28;20025;-60
2022/10/20 09:36:12;;;;;;;25.17;17.45;;;;;;;12.94;100.00;101120.38;5046797;28;20250;-58
2022/10/20 09:38:43;;;;;;;26.50;17.83;;;;;;;12.90;100.00;101127.69;5049950;28;20152;-61
2022/10/20 09:41:24;;;;;;;24.65;16.60;;;;;;;12.79;100.00;101104.09;5050492;28;20048;-60
2022/10/20 09:43:59;;;;;;;27.10;17.50;;;;;;;12.85;100.00;101127.00;5050134;28;20090;-61
2022/10/20 09:46:36;;;;;;;27.77;18.85;;;;;;;12.77;100.00;101121.06;5049873;28;20128;-61
2022/10/20 09:49:21;;;;;;;27.30;18.38;;;;;;;12.83;100.00;101127.31;5049670;28;20580;-59
2022/10/20 09:51:46;;;;;;;28.00;18.80;;;;;;;12.86;100.00;101126.69;5051749;28;20041;-61
2022/10/20 09:54:18;;;;;;;25.13;18.60;;;;;;;12.89;100.00;101128.84;5052033;28;20107;-61
2022/10/20 09:56:45;;;;;;;28.25;18.70;;;;;;;12.90;100.00;101122.16;5052298;28;20055;-61
2022/10/20 09:59:32;;;;;;;27.67;18.52;;;;;;;12.91;100.00;101121.00;5052310;28;20021;-61
2022/10/20 10:02:00;;;;;;;27.67;18.67;;;;;;;12.88;100.00;101107.75;5051511;28;20155;-61
2022/10/20 10:04:32;;;;;;;26.73;18.60;;;;;;;12.93;100.00;101104.03;5048782;28;20031;-59
2022/10/20 10:06:57;;;;;;;26.45;18.95;;;;;;;12.95;100.00;101110.09;5047586;28;20033;-61
2022/10/20 10:09:34;;;;;;;27.65;18.95;;;;;;;12.89;100.00;101105.81;5025972;28;20083;-61
2022/10/20 10:12:01;;;;;;;28.05;19.13;;;;;;;12.88;100.00;101120.84;5052558;28;20067;-60
2022/10/20 10:14:28;;;;;;;28.83;18.52;;;;;;;12.84;100.00;101114.25;5051319;28;20146;-60
2022/10/20 10:16:54;;;;;;;27.00;19.52;;;;;;;12.82;100.00;101122.91;5032655;28;20108;-60
2022/10/20 10:19:25;;;;;;;26.55;19.27;;;;;;;12.82;100.00;101119.28;5031431;28;20101;-59
2022/10/20 10:21:53;;;;;;;26.75;19.80;;;;;;;12.78;100.00;101121.88;5031206;28;20044;-60
2022/10/20 10:24:39;;;;;;;25.60;19.08;;;;;;;12.84;100.00;101136.47;5040449;28;20460;-60
2022/10/20 10:27:24;;;;;;;27.75;18.45;;;;;;;12.88;100.00;101135.53;5051784;28;20112;-61
2022/10/20 10:29:49;;;;;;;27.80;19.27;;;;;;;12.92;100.00;101121.81;5051689;28;20032;-61
2022/10/20 10:32:18;;;;;;;26.60;18.40;;;;;;;12.95;100.00;101115.66;5051395;28;20032;-61
2022/10/20 10:34:49;;;;;;;27.98;19.27;;;;;;;12.97;100.00;101105.06;5051389;28;20025;-60
2022/10/20 10:37:16;;;;;;;28.60;20.30;;;;;;;12.97;100.00;101107.81;5051158;28;20035;-60
2022/10/20 10:39:42;;;;;;;28.35;20.33;;;;;;;12.96;100.00;101100.63;5051639;28;20060;-61
2022/10/20 10:42:13;;;;;;;28.38;20.50;;;;;;;12.93;100.00;101087.38;5036386;28;20365;-61
2022/10/20 10:45:02;;;;;;;28.02;20.83;;;;;;;12.91;100.00;101095.19;5031993;28;20041;-58
2022/10/20 10:47:58;;;;;;;27.95;21.80;;;;;;;12.86;100.00;101095.31;5032407;28;20104;-61
2022/10/20 10:50:41;;;;;;;27.63;20.20;;;;;;;12.83;100.00;101087.63;5032582;28;20026;-61
2022/10/20 10:53:19;;;;;;;29.40;20.55;;;;;;;12.83;100.00;101090.41;5014338;28;20144;-61
2022/10/20 10:56:06;;;;;;;28.90;21.40;;;;;;;12.82;100.00;101089.59;5032417;28;20472;-61
2022/10/20 10:58:56;;;;;;;29.63;21.17;;;;;;;12.83;100.00;101102.34;5032441;28;20116;-61
2022/10/20 11:01:48;;;;;;;28.35;21.38;;;;;;;12.81;100.00;101093.50;5033011;28;20037;-61
2022/10/20 11:04:46;;;;;;;28.98;21.10;;;;;;;12.78;100.00;101086.63;5032922;28;20492;-61
2022/10/20 11:07:40;;;;;;;30.80;20.88;;;;;;;12.78;100.00;101085.78;5032703;28;20022;-61
2022/10/20 11:10:13;;;;;;;31.83;21.63;;;;;;;12.77;100.00;101084.16;5032740;28;20103;-61
2022/10/20 11:12:53;;;;;;;31.57;22.63;;;;;;;12.76;100.00;101085.28;5032721;28;20021;-60
2022/10/20 11:15:50;;;;;;;31.65;21.88;;;;;;;12.74;100.00;101074.50;5040070;28;20472;-61